createdAt,value
2022-08-25T00:02:33.763Z,60
2022-08-25T00:32:33.675Z,61
2022-08-25T00:47:33.618Z,62
2022-08-25T01:02:33.667Z,63
2022-08-25T01:17:33.571Z,64
2022-08-25T01:32:33.570Z,64
2022-08-25T01:47:33.533Z,64
2022-08-25T02:02:33.562Z,64
2022-08-25T02:17:33.465Z,64
2022-08-25T02:32:33.474Z,64
2022-08-25T02:47:33.405Z,66
2022-08-25T03:02:33.409Z,67
2022-08-25T03:17:33.352Z,67
2022-08-25T03:32:33.358Z,67
2022-08-25T03:47:33.298Z,68
2022-08-25T04:02:33.400Z,69
2022-08-25T04:17:33.248Z,70
2022-08-25T04:32:33.255Z,69
2022-08-25T04:47:33.215Z,70
2022-08-25T05:02:33.199Z,71
2022-08-25T05:17:33.162Z,71
2022-08-25T05:32:33.139Z,72
2022-08-25T05:47:33.089Z,68
2022-08-25T06:02:33.092Z,64
2022-08-25T06:17:33.032Z,62
2022-08-25T06:32:33.037Z,61
2022-08-25T06:47:32.975Z,57
2022-08-25T07:17:32.964Z,55
2022-08-25T07:32:32.942Z,52
2022-08-25T07:47:32.918Z,50
2022-08-25T08:02:32.902Z,48
2022-08-25T08:17:32.815Z,45
2022-08-25T08:32:53.284Z,44
2022-08-25T08:47:32.765Z,43
2022-08-25T09:02:49.972Z,43
2022-08-25T09:17:32.732Z,41
2022-08-25T09:32:32.722Z,40
2022-08-25T09:47:32.838Z,39
2022-08-25T10:02:32.680Z,38
2022-08-25T10:17:33.412Z,38
2022-08-25T10:32:32.580Z,40
2022-08-25T10:47:32.555Z,40
2022-08-25T11:02:32.557Z,41
2022-08-25T11:17:32.511Z,42
2022-08-25T11:47:32.446Z,42
2022-08-25T12:02:32.430Z,41
2022-08-25T12:17:32.396Z,41
2022-08-25T12:32:32.366Z,41
2022-08-25T12:47:32.455Z,39
2022-08-25T13:02:32.449Z,35
2022-08-25T13:17:33.880Z,34
2022-08-25T13:32:34.440Z,34
2022-08-25T14:02:32.381Z,35
2022-08-25T14:17:40.327Z,34
2022-08-25T14:32:32.180Z,35
2022-08-25T14:47:32.127Z,36
2022-08-25T15:02:35.303Z,36
2022-08-25T15:17:32.077Z,36
2022-08-25T15:32:32.076Z,36
2022-08-25T15:47:32.048Z,37
2022-08-25T16:02:32.079Z,36
2022-08-25T16:17:31.968Z,37
2022-08-25T16:32:31.971Z,37
2022-08-25T16:47:31.913Z,38
2022-08-25T17:02:31.910Z,38
2022-08-25T17:17:31.856Z,39
2022-08-25T17:32:31.868Z,39
2022-08-25T17:47:31.806Z,39
2022-08-25T18:02:31.812Z,39
2022-08-25T18:17:31.769Z,39
2022-08-25T18:32:31.774Z,39
2022-08-25T18:47:31.695Z,39
2022-08-25T19:02:31.884Z,39
2022-08-25T19:17:37.261Z,40
2022-08-25T19:32:31.639Z,42
2022-08-25T19:47:31.589Z,43
2022-08-25T20:02:31.607Z,43
2022-08-25T20:17:31.542Z,44
2022-08-25T20:47:31.503Z,43
2022-08-25T21:02:31.543Z,42
2022-08-25T21:17:31.456Z,43
2022-08-25T21:32:31.430Z,42
2022-08-25T21:47:31.397Z,42
2022-08-25T22:02:31.403Z,42
2022-08-25T22:17:31.313Z,44
2022-08-25T22:32:31.311Z,44
2022-08-25T22:47:31.281Z,47
2022-08-25T23:02:31.232Z,48
2022-08-25T23:17:31.202Z,49
2022-08-25T23:32:31.206Z,50
2022-08-25T23:47:31.146Z,52
